Tunis, Tunisia
Current Conditions -  °F | °C
As of 12:30 AM on Sunday 26 Oct 2014 (Local Time) from DTTA Reporting Station
Few Clouds Few Clouds  
Wind Chill: 66°   Ceiling: Unl
Heat Index: 66°   Visibility: 6mi
Dew Point: 57°   Wind: 6mph
Humidity: 73%   Direction: 210°SSW
Pressure: 30.12"   Gusts: NA
Location:  36.84°N, 10.22°E
Report Text: DTTA 252330Z 21005KT 9999 FEW026 19/14 Q1020 NOSIG
Loading
Personal Weather Stations






























Interactive Weather Map
Tropical Storm Tracking
New forecast layout! Learn more

10-Day Weather Forecast

Advertisements
Track Severe Weather on mobile